KD7DVD-1 Weather Reports


Display with metric or nautical units.
time (UTC)temp
F
wind
direction
speed
MPH
gust
MPH
rain 1hr
in
rain 24hr
in
rain mn
in
humidity
%
barometer
mb
20240519043020 49 0.0 1.0 0.11 0.16 0.16 90 1019.4
20240519040021 50 0.0 0.0 0.00 0.05 0.05 90 1018.9
20240519033021 50 0.0 0.0 0.00 0.05 0.05 89 1018.6
20240519030021 50 0.0 0.0 0.00 0.05 0.05 87 1018.4
20240519023021 51 0.0 0.0 0.00 0.05 0.05 85 1018.2
20240519020021 51 0.0 1.0 0.00 0.05 0.05 84 1018.0
20240519013021 51 0.0 1.0 0.01 0.05 0.05 82 1017.9
20240519010020 51 0.0 1.0 0.01 0.05 0.05 84 1017.7
20240519003020 51 0.0 3.0 0.00 0.04 0.04 81 1017.9
20240519000020 52 0.0 3.0 0.00 0.04 0.04 78 1017.8
20240518233020 51 0.0 3.0 0.04 0.04 0.04 81 1017.6
20240518230020 51 0.0 1.0 0.04 0.04 0.04 89 1017.6
20240518223020 52 0.0 3.0 0.00 0.00 0.00 83 1017.5
20240518220020 54 90 1.0 5.0 0.00 0.00 0.00 76 1017.6
20240518213020 53 90 1.0 6.0 0.00 0.00 0.00 78 1017.7
20240518210020 54 90 1.0 3.0 0.00 0.00 0.00 73 1017.8
20240518203020 54 90 1.0 4.0 0.00 0.00 0.00 75 1018.0
20240518200020 52 90 1.0 3.0 0.00 0.00 0.00 77 1018.0
20240518193020 53 90 1.0 4.0 0.00 0.00 0.00 76 1018.1
20240518190019 53 90 1.0 5.0 0.00 0.00 0.00 79 1018.4
20240518183020 51 0.0 3.0 0.00 0.00 0.00 84 1018.5
20240518180020 49 0.0 3.0 0.00 0.00 0.00 86 1018.6
20240518173019 49 0.0 3.0 0.00 0.00 0.00 85 1018.6
20240518170020 49 0.0 1.0 0.00 0.00 0.00 83 1018.6
20240518163019 48 0.0 1.0 0.00 0.00 0.00 85 1018.8
20240518160019 50 0.0 1.0 0.00 0.00 0.00 79 1018.6
20240518153019 49 0.0 1.0 0.00 0.00 0.00 77 1018.6
20240518150019 49 0.0 3.0 0.00 0.00 0.00 78 1018.4
20240518143019 49 0.0 1.0 0.00 0.00 0.00 79 1018.5
20240518140019 49 0.0 1.0 0.00 0.00 0.00 80 1018.7
20240518133021 48 0.0 1.0 0.00 0.00 0.00 80 1018.8
20240518130021 49 0.0 1.0 0.00 0.00 0.00 79 1018.9
20240518123021 49 0.0 1.0 0.00 0.00 0.00 79 1018.6
20240518120021 49 0.0 2.0 0.00 0.00 0.00 78 1019.2
20240518113021 49 0.0 1.0 0.00 0.00 0.00 79 1019.1
20240518110020 49 0.0 1.0 0.00 0.00 0.00 78 1019.2
20240518103020 49 0.0 0.0 0.00 0.00 0.00 79 1019.2
20240518100020 49 0.0 0.0 0.00 0.00 0.00 79 1019.3
20240518093020 49 0.0 0.0 0.00 0.00 0.00 77 1019.5
20240518090020 49 0.0 1.0 0.00 0.00 0.00 77 1019.5
20240518083020 50 0.0 0.0 0.00 0.02 0.00 78 1019.6
20240518080020 50 0.0 0.0 0.00 0.02 0.00 77 1019.8
20240518073020 51 0.0 0.0 0.00 0.07 0.00 76 1019.9
20240518070020 52 0.0 2.0 0.00 0.07 0.07 73 1019.7
20240518063021 52 0.0 0.0 0.00 0.07 0.07 76 1019.8
20240518060019 52 0.0 3.0 0.00 0.07 0.07 75 1019.8
20240518053019 51 0.0 1.0 0.00 0.07 0.07 76 1019.5
20240518050019 51 0.0 0.0 0.00 0.07 0.07 75 1019.3